METAR Data
IDs: Format: Raw Decoded Include TAF

Data at: 1339 UTC 10 Aug 2022

KMYF 101253Z 07003KT 10SM CLR 22/19 A2997 RMK AO2 SLP141 T02170189
KMYF 101153Z AUTO 00000KT 10SM CLR 22/19 A2996 RMK AO2 SLP140 T02170194 10228 20217 58003
KMYF 101053Z AUTO 00000KT 10SM CLR 22/19 A2996 RMK AO2 SLP141 T02220194
KMYF 100953Z AUTO 00000KT 10SM CLR 22/19 A2997 RMK AO2 SLP142 T02220194
KMYF 100853Z AUTO 35004KT 10SM CLR 22/19 A2997 RMK AO2 SLP142 T02220194 58003
KMYF 100753Z AUTO 00000KT 10SM CLR 23/19 A2997 RMK AO2 SLP143 T02280194 403110211
KMYF 100653Z AUTO 23003KT 10SM CLR 23/20 A2998 RMK AO2 SLP147 T02280200
KMYF 100553Z AUTO 21003KT 8SM CLR 23/20 A2998 RMK AO2 SLP146 T02280200 10311 20228 50015
KMYF 100453Z AUTO 26003KT 10SM CLR 23/20 A2998 RMK AO2 SLP146 T02280200
KMYF 100353Z 26004KT 10SM CLR 23/19 A2995 RMK AO2 SLP139 T02330189
KMYF 100253Z 24005KT 10SM CLR 24/18 A2993 RMK AO2 SLP132 T02390183 53007
KMYF 100153Z 25006KT 10SM CLR 28/16 A2991 RMK AO2 SLP123 T02780156
KMYF 100053Z 24006KT 10SM CLR 30/11 A2991 RMK AO2 SLP121 T03000106
KMYF 092353Z 22006KT 10SM CLR 31/08 A2991 RMK AO2 SLP123 T03060078 10311 20278 56008
KMYF 092253Z VRB05KT 10SM CLR 30/10 A2992 RMK AO2 SLP125 T03000100
KMYF 092153Z 24007KT 10SM CLR 28/16 A2993 RMK AO2 SLP128 T02830156
KMYF 092053Z 24010KT 10SM CLR 28/16 A2994 RMK AO2 SLP131 T02780161 58004
KMYF 091953Z 25010KT 10SM CLR 30/16 A2995 RMK AO2 SLP135 T03000161
KMYF 091853Z 26005KT 10SM CLR 29/18 A2995 RMK AO2 SLP135 T02940183
KMYF 091753Z 23007KT 10SM CLR 28/19 A2995 RMK AO2 SLP136 T02830194 10294 20211 58000
KMYF 091653Z 24004KT 10SM CLR 28/19 A2995 RMK AO2 SLP135 T02830189
KMYF 091553Z 00000KT 9SM CLR 26/18 A2996 RMK AO2 SLP139 T02560183
KMYF 091453Z 00000KT 7SM CLR 23/19 A2995 RMK AO2 SLP137 T02280194 53013
KMYF 091353Z 19003KT 7SM CLR 22/19 A2994 RMK AO2 SLP133 T02170194
KMYF 091253Z AUTO 00000KT 9SM CLR 22/19 A2992 RMK AO2 SLP127 T02170194
KMYF 091153Z AUTO 00000KT 9SM CLR 22/19 A2991 RMK AO2 SLP123 70001 T02170194 10228 20217 55001
KMYF 091053Z AUTO 34003KT 8SM CLR 22/19 A2991 RMK AO2 SLP122 T02170194
KMYF 090953Z AUTO 34003KT 8SM CLR 22/20 A2991 RMK AO2 SLP121 T02170200
KMYF 090853Z AUTO 00000KT 9SM CLR 22/19 A2991 RMK AO2 SLP123 T02170194 58011
KMYF 090753Z AUTO 00000KT 9SM CLR 22/19 A2993 RMK AO2 SLP129 T02170194 402940194
KMYF 090653Z AUTO 26004KT 9SM CLR 22/19 A2994 RMK AO2 SLP133 T02220194
KMYF 090553Z AUTO 00000KT 6SM BR CLR 22/20 A2995 RMK AO2 SLP135 60001 T02220200 10278 20222 51009
KMYF 090453Z AUTO 00000KT 10SM SCT095 SCT110 23/19 A2994 RMK AO2 RAE38 SLP135 P0000 T02280194
KMYF 090353Z 00000KT 10SM -RA SCT110 23/19 A2993 RMK AO2 SLP130 P0001 T02330189
KMYF 090253Z 29003KT 10SM -RA OVC110 24/18 A2992 RMK AO2 RAB38 SLP127 P0000 60000 T02440178 53010
KMYF 090153Z 25006KT 10SM CLR 26/16 A2990 RMK AO2 SLP120 T02560156